Time;durP1;ratioP1;P1;durP2;ratioP2;P2;SDS_P1;SDS_P2;PMS_P1;PMS_P2;Temp;Humidity;BMP_temperature;BMP_pressure;BME280_temperature;BME280_humidity;BME280_pressure;Samples;Min_cycle;Max_cycle;Signal;HPM_P1;HPM_P2
2022/10/26 00:23:34;;;;;;;;;;;;;;;;;;;;;
2022/10/26 00:32:14;;;;;;;;;;;;;;;;;;;;;
2022/10/26 00:40:46;;;;;;;11.77;7.10;;;;;;;;;;4995521;28;20030;-78
2022/10/26 00:43:24;;;;;;;8.60;5.60;;;;;;;;;;4993752;28;20041;-76
2022/10/26 00:49:23;;;;;;;;;;;;;;;;;;;;;
2022/10/26 01:02:04;;;;;;;;;;;;;;;;;;;;;
2022/10/26 01:08:08;;;;;;;10.57;5.53;;;;;;;;;;4929901;28;20604;-78
2022/10/26 01:25:26;;;;;;;14.82;6.03;;;;;;;;;;5015839;28;20560;-77
2022/10/26 01:34:35;;;;;;;11.55;5.38;;;;;;;;;;5020263;28;20099;-78
2022/10/26 01:46:35;;;;;;;;;;;;;;;;;;;;;
2022/10/26 01:49:49;;;;;;;4.85;4.35;;;;;;;;;;5023317;28;20418;-77
2022/10/26 01:52:46;;;;;;;;;;;;;;;;;;;;;
2022/10/26 01:55:31;;;;;;;9.50;4.97;;;;;;;;;;5038885;28;20172;-76
2022/10/26 01:58:15;;;;;;;9.43;5.18;;;;;;;;;;5014398;28;20052;-80
2022/10/26 04:31:59;;;;;;;7.18;3.92;;;;;;;;;;4928174;29;20436;-76
2022/10/26 04:46:28;;;;;;;10.45;4.20;;;;;;;;;;5030396;28;20076;-75
2022/10/26 04:48:54;;;;;;;9.45;4.60;;;;;;;;;;5026754;28;20025;-77
2022/10/26 04:51:23;;;;;;;5.40;3.90;;;;;;;;;;5052448;28;20135;-77
2022/10/26 04:53:54;;;;;;;7.57;3.78;;;;;;;;;;5037640;28;20021;-77
2022/10/26 04:56:23;;;;;;;;;;;;;;;;;;5051311;28;20049;-82
2022/10/26 04:58:56;;;;;;;6.93;4.20;;;;;;;;;;5037931;28;20003;-76
2022/10/26 05:01:22;;;;;;;14.20;5.32;;;;;;;;;;5051543;28;20024;-77
2022/10/26 05:03:51;;;;;;;6.55;4.43;;;;;;;;;;5051546;28;20029;-77
2022/10/26 05:06:20;;;;;;;9.13;4.72;;;;;;;;;;5051753;28;20075;-77
2022/10/26 05:11:47;;;;;;;;;;;;;;;;;;;;;
2022/10/26 05:17:03;;;;;;;8.65;4.20;;;;;;;;;;5171038;22;20067;-80
2022/10/26 05:19:42;;;;;;;14.82;4.70;;;;;;;;;;5030190;28;20041;-77
2022/10/26 05:22:11;;;;;;;8.02;5.07;;;;;;;;;;5030658;28;20611;-77
2022/10/26 05:24:40;;;;;;;9.38;5.28;;;;;;;;;;5030106;28;20071;-79
2022/10/26 06:29:48;;;;;;;7.35;3.20;;;;;;;;;;5691513;22;20021;-80
2022/10/26 06:37:54;;;;;;;3.85;2.30;;;;;;;;;;4670773;26;20530;-72
2022/10/26 06:40:23;;;;;;;10.45;2.95;;;;;;;;;;5030017;28;20014;-72
2022/10/26 06:42:49;;;;;;;4.00;2.30;;;;;;;;;;5029341;28;20101;-71
2022/10/26 06:45:16;;;;;;;4.88;2.05;;;;;;;;;;5040273;28;20037;-72
2022/10/26 06:47:42;;;;;;;4.05;2.35;;;;;;;;;;5030687;28;20028;-72
2022/10/26 06:50:11;;;;;;;4.93;2.70;;;;;;;;;;5033077;28;20055;-71
2022/10/26 06:52:41;;;;;;;5.65;2.30;;;;;;;;;;5032098;28;20029;-72
2022/10/26 06:55:12;;;;;;;4.93;2.47;;;;;;;;;;5013814;28;20032;-73
2022/10/26 06:57:38;;;;;;;4.80;2.97;;;;;;;;;;5032488;28;20025;-72
2022/10/26 07:00:14;;;;;;;8.07;3.13;;;;;;;;;;5033797;28;20032;-74
2022/10/26 07:03:17;;;;;;;5.65;2.92;;;;;;;;;;5035445;28;20025;-80
2022/10/26 07:08:31;;;;;;;9.15;3.78;;;;;;;;;;5036797;28;20044;-83
2022/10/26 07:11:04;;;;;;;10.32;3.40;;;;;;;;;;5037522;28;20032;-83
2022/10/26 07:13:38;;;;;;;6.63;3.80;;;;;;;;;;5022345;28;20487;-82
2022/10/26 07:16:07;;;;;;;9.80;3.80;;;;;;;;;;5038680;28;20161;-82
2022/10/26 07:24:54;;;;;;;6.72;3.55;;;;;;;;;;4939533;29;20035;-84
2022/10/26 07:30:45;;;;;;;10.57;4.35;;;;;;;;;;4885491;29;20041;-81
2022/10/26 07:33:11;;;;;;;;;;;;;;;;;;4936761;29;20062;-82
2022/10/26 07:36:18;;;;;;;10.85;3.53;;;;;;;;;;4979112;28;19999;-83
2022/10/26 07:38:52;;;;;;;10.27;4.30;;;;;;;;;;5014902;28;20407;-82
2022/10/26 07:41:29;;;;;;;6.63;4.50;;;;;;;;;;5032260;28;20033;-82
2022/10/26 07:44:11;;;;;;;;;;;;;;;;;;;;;
2022/10/26 07:47:03;;;;;;;8.38;4.72;;;;;;;;;;5039916;28;20575;-82
2022/10/26 08:32:46;;;;;;;11.00;7.75;;;;;;;;;;5028433;22;20106;-78
2022/10/26 08:35:50;;;;;;;11.25;8.10;;;;;;;;;;5053262;28;20124;-76
2022/10/26 08:38:27;;;;;;;12.18;8.70;;;;;;;;;;5068632;28;20057;-80
2022/10/26 08:41:26;;;;;;;;;;;;;;;;;;;;;
2022/10/26 08:47:24;;;;;;;13.27;9.00;;;;;;;;;;5037525;28;20020;-77
2022/10/26 08:50:51;;;;;;;;;;;;;;;;;;;;;
2022/10/26 08:53:44;;;;;;;15.63;9.45;;;;;;;;;;4990900;28;20034;-77
2022/10/26 09:06:53;;;;;;;;;;;;;;;;;;;;;
2022/10/26 09:15:42;;;;;;;14.57;9.85;;;;;;;;;;5072844;28;20051;-78
2022/10/26 09:46:40;;;;;;;;;;;;;;;;;;;;;
2022/10/26 10:01:03;;;;;;;;;;;;;;;;;;;;;
2022/10/26 10:10:16;;;;;;;;;;;;;;;;;;;;;
2022/10/26 10:13:27;;;;;;;;;;;;;;;;;;;;;
2022/10/26 10:16:10;;;;;;;;;;;;;;;;;;;;;
2022/10/26 10:18:57;;;;;;;15.02;7.03;;;;;;;;;;5005960;28;20474;-82
2022/10/26 10:32:19;;;;;;;11.98;6.63;;;;;;;;;;5158380;23;20084;-78
2022/10/26 11:34:15;;;;;;;6.72;4.25;;;;;;;;;;5163646;22;20049;-78
2022/10/26 11:43:18;;;;;;;11.30;4.07;;;;;;;;;;5017751;28;20029;-77
2022/10/26 11:49:17;;;;;;;;;;;;;;;;;;;;;
2022/10/26 11:54:50;;;;;;;4.45;2.42;;;;;;;;;;5080753;22;20085;-76
2022/10/26 12:48:25;;;;;;;;;;;;;;;;;;;;;
2022/10/26 12:54:46;;;;;;;;;;;;;;;;;;;;;
2022/10/26 12:57:19;;;;;;;4.53;1.00;;;;;;;;;;5053962;28;20302;-75
2022/10/26 13:05:54;;;;;;;1.73;1.20;;;;;;;;;;5064997;28;20035;-79
2022/10/26 13:21:13;;;;;;;2.30;1.05;;;;;;;;;;5039107;22;20041;-79
2022/10/26 13:27:25;;;;;;;;;;;;;;;;;;;;;
2022/10/26 13:48:44;;;;;;;4.30;0.82;;;;;;;;;;5017098;28;20038;-77
2022/10/26 13:58:00;;;;;;;4.13;1.70;;;;;;;;;;4969467;28;20444;-78
2022/10/26 14:01:11;;;;;;;;;;;;;;;;;;;;;
2022/10/26 14:04:03;;;;;;;1.58;0.88;;;;;;;;;;4872701;29;20044;-78
2022/10/26 14:06:59;;;;;;;5.85;1.38;;;;;;;;;;4893480;29;20032;-77
2022/10/26 14:21:32;;;;;;;;;;;;;;;;;;;;;
2022/10/26 14:24:40;;;;;;;3.13;1.08;;;;;;;;;;5017809;28;20040;-80
2022/10/26 14:27:54;;;;;;;3.55;1.20;;;;;;;;;;5002101;28;20029;-80
2022/10/26 14:36:32;;;;;;;5.38;1.83;;;;;;;;;;5057967;28;20481;-80
2022/10/26 16:14:37;;;;;;;15.75;6.28;;;;;;;;;;4962966;28;20113;-77
2022/10/26 16:17:23;;;;;;;;;;;;;;;;;;;;;
2022/10/26 16:21:10;;;;;;;12.60;6.60;;;;;;;;;;5042051;28;20037;-77
2022/10/26 16:23:37;;;;;;;11.15;7.13;;;;;;;;;;4982666;28;20047;-80
2022/10/26 16:26:24;;;;;;;14.60;8.32;;;;;;;;;;5051627;28;20032;-78
2022/10/26 16:28:52;;;;;;;15.13;7.65;;;;;;;;;;5035053;28;20426;-77
2022/10/26 16:31:19;;;;;;;13.73;7.68;;;;;;;;;;5048319;28;20625;-77
2022/10/26 16:33:45;;;;;;;13.30;8.00;;;;;;;;;;5043960;28;20033;-77
2022/10/26 16:36:14;;;;;;;12.70;7.72;;;;;;;;;;5050071;28;20098;-79
2022/10/26 16:38:54;;;;;;;15.52;7.88;;;;;;;;;;5042608;28;20211;-77
2022/10/26 16:41:23;;;;;;;15.23;8.23;;;;;;;;;;5081925;22;20573;-77
2022/10/26 16:43:57;;;;;;;15.45;7.40;;;;;;;;;;5060128;28;20490;-77
2022/10/26 16:46:27;;;;;;;14.75;7.55;;;;;;;;;;5071998;28;20024;-78
2022/10/26 16:48:59;;;;;;;10.95;7.88;;;;;;;;;;5053632;28;20071;-76
2022/10/26 16:51:33;;;;;;;13.65;7.53;;;;;;;;;;5053394;28;20036;-76
2022/10/26 16:56:56;;;;;;;13.18;8.05;;;;;;;;;;5034678;28;20033;-79
2022/10/26 17:02:10;;;;;;;17.58;9.32;;;;;;;;;;5071556;28;20027;-76
2022/10/26 17:04:36;;;;;;;14.50;8.68;;;;;;;;;;5067385;28;20100;-74
2022/10/26 17:07:02;;;;;;;13.98;8.73;;;;;;;;;;5070060;28;20111;-77
2022/10/26 17:09:28;;;;;;;16.70;8.77;;;;;;;;;;5053650;28;20032;-76
2022/10/26 17:11:54;;;;;;;15.98;7.97;;;;;;;;;;5071589;28;20432;-78
2022/10/26 17:14:33;;;;;;;30.23;9.13;;;;;;;;;;5053938;28;20033;-78
2022/10/26 17:17:02;;;;;;;19.08;9.75;;;;;;;;;;5053448;28;20455;-76
2022/10/26 17:19:28;;;;;;;14.82;9.35;;;;;;;;;;5071782;28;20020;-76
2022/10/26 17:21:54;;;;;;;20.10;10.38;;;;;;;;;;5077236;28;20020;-81
2022/10/26 17:24:28;;;;;;;16.33;9.48;;;;;;;;;;5080333;28;20474;-80
2022/10/26 17:27:04;;;;;;;15.50;9.10;;;;;;;;;;5060588;28;20029;-81
2022/10/26 17:29:38;;;;;;;19.95;9.90;;;;;;;;;;5044458;28;20131;-76
2022/10/26 17:48:33;;;;;;;16.80;11.15;;;;;;;;;;4933166;29;20031;-79
2022/10/26 17:54:18;;;;;;;16.10;9.80;;;;;;;;;;4900832;29;20085;-82
2022/10/26 17:56:49;;;;;;;16.45;9.20;;;;;;;;;;4978497;28;20120;-79
2022/10/26 17:59:32;;;;;;;18.07;10.40;;;;;;;;;;5009718;28;20030;-81
2022/10/26 18:02:07;;;;;;;16.52;10.52;;;;;;;;;;5030420;28;20260;-79
2022/10/26 18:04:41;;;;;;;15.73;10.30;;;;;;;;;;5029364;28;20029;-76
2022/10/26 18:07:07;;;;;;;14.90;9.98;;;;;;;;;;5028320;28;20026;-77
2022/10/26 18:09:36;;;;;;;16.85;10.95;;;;;;;;;;5009738;28;20033;-78
2022/10/26 18:12:09;;;;;;;17.35;10.82;;;;;;;;;;5027644;28;20047;-81
2022/10/26 18:14:38;;;;;;;17.45;10.38;;;;;;;;;;5010089;28;20112;-78
2022/10/26 18:17:04;;;;;;;18.55;10.85;;;;;;;;;;5029125;28;20032;-75
2022/10/26 18:19:33;;;;;;;19.33;10.05;;;;;;;;;;5029524;28;20049;-78
2022/10/26 18:22:05;;;;;;;19.33;9.63;;;;;;;;;;5029503;28;20614;-79
2022/10/26 18:24:33;;;;;;;19.20;10.60;;;;;;;;;;5031143;28;20033;-77
2022/10/26 18:27:10;;;;;;;15.20;9.45;;;;;;;;;;5029745;28;20380;-77
2022/10/26 18:29:44;;;;;;;16.83;10.10;;;;;;;;;;5011635;28;20491;-79
2022/10/26 18:32:13;;;;;;;14.50;9.25;;;;;;;;;;5005837;28;20026;-78
2022/10/26 18:34:42;;;;;;;20.90;10.50;;;;;;;;;;5011677;28;20025;-77
2022/10/26 18:37:10;;;;;;;16.40;9.70;;;;;;;;;;5028439;28;20022;-79
2022/10/26 18:39:36;;;;;;;16.85;10.40;;;;;;;;;;5028293;28;20104;-77
2022/10/26 18:42:08;;;;;;;17.98;10.27;;;;;;;;;;5029204;28;20372;-77
2022/10/26 18:44:39;;;;;;;19.60;10.63;;;;;;;;;;5015649;28;20480;-78
2022/10/26 18:47:05;;;;;;;18.05;11.68;;;;;;;;;;5033772;28;20028;-78
2022/10/26 18:49:41;;;;;;;;;;;;;;;;;;;;;
2022/10/26 18:52:29;;;;;;;19.90;11.27;;;;;;;;;;5034904;28;20022;-80
2022/10/26 18:55:05;;;;;;;21.83;10.95;;;;;;;;;;5011257;28;20403;-79
2022/10/26 18:57:33;;;;;;;17.33;10.40;;;;;;;;;;5032888;28;20067;-78
2022/10/26 19:00:02;;;;;;;19.40;11.15;;;;;;;;;;5032975;28;20029;-80
2022/10/26 19:02:33;;;;;;;19.25;11.55;;;;;;;;;;5032833;28;20083;-78
2022/10/26 19:05:05;;;;;;;16.95;11.38;;;;;;;;;;5028780;28;20022;-77
2022/10/26 19:07:31;;;;;;;19.00;10.73;;;;;;;;;;5032331;28;20465;-78
2022/10/26 19:10:03;;;;;;;17.63;10.77;;;;;;;;;;5033455;28;20025;-81
2022/10/26 19:12:42;;;;;;;21.52;10.98;;;;;;;;;;5015760;28;20570;-76
2022/10/26 19:15:45;;;;;;;17.35;11.25;;;;;;;;;;5034354;28;20021;-77
2022/10/26 19:18:16;;;;;;;22.88;12.05;;;;;;;;;;5033151;28;20028;-78
2022/10/26 19:20:45;;;;;;;17.43;9.67;;;;;;;;;;5158970;22;20043;-78
2022/10/26 19:23:22;;;;;;;18.30;11.82;;;;;;;;;;5064439;28;20043;-80
2022/10/26 19:25:58;;;;;;;19.17;11.70;;;;;;;;;;5054574;28;20413;-81
2022/10/26 19:28:43;;;;;;;20.13;12.63;;;;;;;;;;5064412;28;20506;-78
2022/10/26 19:31:10;;;;;;;22.63;12.63;;;;;;;;;;5049355;28;20032;-80
2022/10/26 19:33:39;;;;;;;17.83;10.88;;;;;;;;;;5059677;28;20107;-78
2022/10/26 19:36:06;;;;;;;18.70;11.98;;;;;;;;;;5054681;28;20040;-80
2022/10/26 19:38:42;;;;;;;20.35;13.00;;;;;;;;;;5047140;28;20025;-82
2022/10/26 19:41:13;;;;;;;21.17;12.93;;;;;;;;;;5041545;28;20394;-80
2022/10/26 19:44:12;;;;;;;21.50;12.93;;;;;;;;;;5049978;28;20478;-82
2022/10/26 19:46:38;;;;;;;20.30;13.05;;;;;;;;;;5055677;28;20029;-75
2022/10/26 19:49:08;;;;;;;20.52;12.85;;;;;;;;;;5050008;28;20505;-78
2022/10/26 19:51:37;;;;;;;20.58;13.10;;;;;;;;;;5063867;28;20059;-78
2022/10/26 19:54:05;;;;;;;19.65;11.82;;;;;;;;;;5055238;28;20032;-79
2022/10/26 19:57:05;;;;;;;20.10;12.35;;;;;;;;;;5054045;28;20044;-79
2022/10/26 19:59:32;;;;;;;23.17;12.60;;;;;;;;;;5066531;28;20096;-78
2022/10/26 20:02:04;;;;;;;22.25;12.88;;;;;;;;;;5060558;28;20059;-78
2022/10/26 20:04:39;;;;;;;23.50;13.07;;;;;;;;;;5038178;28;20021;-81
2022/10/26 20:07:05;;;;;;;27.98;13.68;;;;;;;;;;5055747;28;20020;-77
2022/10/26 20:10:02;;;;;;;30.33;14.07;;;;;;;;;;5062882;28;20763;-78
2022/10/26 20:12:48;;;;;;;24.85;14.27;;;;;;;;;;5046552;28;20025;-77
2022/10/26 20:15:25;;;;;;;25.98;14.38;;;;;;;;;;5033674;28;20029;-78
2022/10/26 20:21:13;;;;;;;24.92;14.38;;;;;;;;;;5055955;28;20052;-76
2022/10/26 20:23:44;;;;;;;25.25;15.02;;;;;;;;;;5057774;28;20021;-79
2022/10/26 20:26:30;;;;;;;;;;;;;;;;;;;;;
2022/10/26 20:29:12;;;;;;;27.80;14.85;;;;;;;;;;5041192;28;20025;-78
2022/10/26 20:31:41;;;;;;;25.75;14.52;;;;;;;;;;5054277;28;20047;-77
2022/10/26 20:34:17;;;;;;;28.02;15.18;;;;;;;;;;5056245;28;20033;-78
2022/10/26 20:37:09;;;;;;;21.00;13.57;;;;;;;;;;5055021;28;20025;-78
2022/10/26 20:39:38;;;;;;;22.02;13.43;;;;;;;;;;5063423;28;20039;-80
2022/10/26 20:42:20;;;;;;;27.35;14.95;;;;;;;;;;5059043;28;20028;-79
2022/10/26 20:45:07;;;;;;;32.83;14.80;;;;;;;;;;5059300;28;20059;-79
2022/10/26 20:47:59;;;;;;;24.23;15.77;;;;;;;;;;5035970;28;20028;-80
2022/10/26 20:54:08;;;;;;;28.70;15.05;;;;;;;;;;5006720;28;20042;-78
2022/10/26 20:56:40;;;;;;;25.10;15.75;;;;;;;;;;5048641;28;20087;-79
2022/10/26 20:59:47;;;;;;;30.90;18.10;;;;;;;;;;5050481;28;20486;-80
2022/10/26 21:05:11;;;;;;;29.25;17.23;;;;;;;;;;5049598;28;20495;-77
2022/10/26 21:08:06;;;;;;;31.83;16.92;;;;;;;;;;5057759;28;20020;-78
2022/10/26 21:14:08;;;;;;;28.45;16.88;;;;;;;;;;5051491;28;20056;-78
2022/10/26 21:16:37;;;;;;;30.98;16.83;;;;;;;;;;5035638;28;20044;-79
2022/10/26 21:25:13;;;;;;;33.72;18.58;;;;;;;;;;4966222;28;20061;-78
2022/10/26 21:27:39;;;;;;;31.33;16.80;;;;;;;;;;5036546;28;20293;-80
2022/10/26 21:30:08;;;;;;;30.77;16.52;;;;;;;;;;5053528;28;20014;-79
2022/10/26 21:35:37;;;;;;;;;;;;;;;;;;4956063;28;20484;-78
2022/10/26 21:38:10;;;;;;;32.95;17.65;;;;;;;;;;5033919;28;19909;-77
2022/10/26 21:50:04;;;;;;;39.90;19.88;;;;;;;;;;5009783;28;20092;-80
2022/10/26 21:52:39;;;;;;;27.42;17.48;;;;;;;;;;4993389;28;20133;-78
2022/10/26 21:55:37;;;;;;;31.08;18.80;;;;;;;;;;5014380;28;20068;-76
2022/10/26 21:58:14;;;;;;;36.35;18.95;;;;;;;;;;5032595;28;20115;-77
2022/10/26 22:01:00;;;;;;;39.67;20.25;;;;;;;;;;5037191;28;20029;-78
2022/10/26 22:09:39;;;;;;;29.48;18.60;;;;;;;;;;5045010;28;20029;-79
2022/10/26 22:12:10;;;;;;;32.42;18.13;;;;;;;;;;5051335;28;20028;-78
2022/10/26 22:14:36;;;;;;;29.05;17.77;;;;;;;;;;5051521;28;20021;-78
2022/10/26 22:17:15;;;;;;;;;;;;;;;;;;;;;
2022/10/26 22:19:55;;;;;;;35.65;17.73;;;;;;;;;;5052171;28;20027;-77
2022/10/26 22:22:27;;;;;;;32.00;17.38;;;;;;;;;;5043601;28;20036;-79
2022/10/26 22:24:56;;;;;;;36.30;20.98;;;;;;;;;;5063376;28;20541;-80
2022/10/26 22:27:31;;;;;;;34.33;20.67;;;;;;;;;;5063356;28;20048;-79
2022/10/26 22:29:59;;;;;;;32.67;19.98;;;;;;;;;;5073498;28;20024;-79
2022/10/26 22:32:35;;;;;;;38.65;20.55;;;;;;;;;;5051215;28;20028;-80
2022/10/26 22:35:19;;;;;;;37.25;19.90;;;;;;;;;;5050983;28;20017;-78
2022/10/26 22:39:02;;;;;;;31.48;19.52;;;;;;;;;;5050580;28;20465;-78
2022/10/26 22:56:54;;;;;;;33.45;19.38;;;;;;;;;;4995432;28;20036;-78
2022/10/26 22:59:20;;;;;;;32.22;19.42;;;;;;;;;;5029413;28;20522;-81
2022/10/26 23:02:18;;;;;;;35.88;19.40;;;;;;;;;;5044101;28;20044;-77
2022/10/26 23:04:44;;;;;;;31.15;18.77;;;;;;;;;;5008537;28;20518;-78
2022/10/26 23:07:13;;;;;;;29.88;18.13;;;;;;;;;;5043945;28;20025;-78
2022/10/26 23:09:39;;;;;;;28.63;17.33;;;;;;;;;;5043992;28;20021;-77
2022/10/26 23:12:07;;;;;;;32.72;18.23;;;;;;;;;;5050673;28;20017;-77
2022/10/26 23:14:43;;;;;;;35.20;20.10;;;;;;;;;;5050791;28;20402;-77
2022/10/26 23:17:12;;;;;;;30.83;18.23;;;;;;;;;;5050271;28;20383;-77
2022/10/26 23:19:40;;;;;;;31.52;19.48;;;;;;;;;;5050433;28;20045;-77
2022/10/26 23:22:14;;;;;;;35.15;18.83;;;;;;;;;;5032616;28;20028;-77
2022/10/26 23:24:42;;;;;;;34.00;17.95;;;;;;;;;;5051039;28;20074;-77
2022/10/26 23:27:14;;;;;;;34.40;17.52;;;;;;;;;;5036259;28;20147;-77
2022/10/26 23:29:40;;;;;;;31.65;19.05;;;;;;;;;;5045677;28;20388;-76
2022/10/26 23:32:06;;;;;;;29.33;18.23;;;;;;;;;;5053881;28;20514;-76
2022/10/26 23:34:32;;;;;;;30.63;18.48;;;;;;;;;;5054012;28;20033;-77
2022/10/26 23:36:58;;;;;;;36.15;17.30;;;;;;;;;;5053464;28;20039;-79
2022/10/26 23:39:24;;;;;;;26.98;15.07;;;;;;;;;;5053627;28;20434;-78
2022/10/26 23:41:50;;;;;;;26.65;15.23;;;;;;;;;;5052457;28;20021;-79
2022/10/26 23:44:16;;;;;;;28.63;15.20;;;;;;;;;;5053846;28;20062;-78
2022/10/26 23:46:42;;;;;;;28.13;14.52;;;;;;;;;;5054026;28;20036;-77
2022/10/26 23:49:08;;;;;;;28.90;14.65;;;;;;;;;;5053297;28;20021;-77
2022/10/26 23:51:34;;;;;;;24.10;13.95;;;;;;;;;;5053385;28;20020;-77
2022/10/26 23:54:03;;;;;;;26.02;13.63;;;;;;;;;;5036244;28;20074;-77
2022/10/26 23:56:31;;;;;;;22.52;13.48;;;;;;;;;;5036069;28;20487;-78
2022/10/26 23:59:00;;;;;;;29.15;15.57;;;;;;;;;;5037581;28;20023;-78
